Aviation Digital Data Service (ADDS)

Output produced by METARs form (0502 UTC 21 September 2017)
found at http://www.aviationweather.gov/adds/metars/
 
TAF HHAS 210400 2106/2206 06010KT 9/9 FEW025 
     TEMPO 2110/2116 08008G16KT 9/9 FEW020CB SCT025 
     BECMG 2118/2121 06006KT 9/9 FEW030
       
HHSB 211000Z 2012/2112 08014KT 9/9 FEW030 
     BECMG2018/2021 04008KT CAVOK